< < Back
Terminal Aerodrome Forecast


Current Version              Previous Versions:   1  2  3  4  5  6  7  8  9  

Terminal Aerodrome Forecast

680
FTUS42 KFFC 180520
TAFAHN
TAF
KAHN 180520Z 1806/1906 07004KT 6SM -RA BKN004 OVC014
     FM180900 VRB03KT 2SM -DZ BR OVC003
     FM181400 07005KT P6SM BKN008
     FM181800 11006KT P6SM BKN025 PROB30 1821/1824 4SM TSRA SCT025CB
      BKN035
     FM190500 12004KT P6SM -RA BKN015=



Latest METAR

832
SAUS70 KWBC 181600
MTRAHN
METAR KAHN 181551Z AUTO 08005KT 9SM -RA OVC008 19/18 A3000 RMK AO2
RAE04B41 CIG 006V012 SLP156 P0000 T01940178


USA.gov is the U.S. government's official web portal to all federal, state and local government web resources and services.